Time;durP1;ratioP1;P1;durP2;ratioP2;P2;SDS_P1;SDS_P2;PMS_P1;PMS_P2;Temp;Humidity;BMP_temperature;BMP_pressure;BME280_temperature;BME280_humidity;BME280_pressure;Samples;Min_cycle;Max_cycle;Signal;HPM_P1;HPM_P2
2022/04/21 00:00:42;;;;;;;8.98;6.63;;;6.30;89.10;;;;;;5098627;27;20048;-70
2022/04/21 00:03:09;;;;;;;8.90;6.85;;;6.50;87.60;;;;;;5096996;27;20480;-70
2022/04/21 00:05:35;;;;;;;8.27;6.57;;;6.60;87.30;;;;;;5098402;28;20036;-71
2022/04/21 00:08:01;;;;;;;9.00;7.00;;;6.60;87.30;;;;;;5093865;28;20393;-70
2022/04/21 00:10:28;;;;;;;8.93;7.25;;;6.40;87.60;;;;;;5099798;27;20065;-70
2022/04/21 00:12:56;;;;;;;10.13;7.05;;;6.00;88.60;;;;;;5095220;28;20036;-70
2022/04/21 00:15:23;;;;;;;10.40;7.00;;;5.60;90.00;;;;;;5093678;28;20568;-71
2022/04/21 00:17:49;;;;;;;6.90;6.20;;;5.50;90.10;;;;;;5096509;28;20494;-69
2022/04/21 00:20:15;;;;;;;8.65;6.90;;;5.30;90.50;;;;;;5096765;27;20066;-69
2022/04/21 00:25:29;;;;;;;8.40;6.88;;;5.00;91.10;;;;;;5096405;27;20079;-69
2022/04/21 00:27:55;;;;;;;7.90;6.78;;;4.80;91.80;;;;;;5099548;28;20023;-69
2022/04/21 00:30:21;;;;;;;8.40;6.72;;;4.80;92.00;;;;;;5098067;27;20067;-69
2022/04/21 00:32:47;;;;;;;7.35;6.47;;;4.80;91.80;;;;;;5092687;27;20071;-69
2022/04/21 00:35:14;;;;;;;7.40;6.47;;;4.80;92.00;;;;;;5093121;28;20089;-69
2022/04/21 00:37:50;;;;;;;8.65;6.80;;;4.80;92.00;;;;;;5096061;28;20158;-69
2022/04/21 00:40:18;;;;;;;7.63;6.47;;;4.70;92.10;;;;;;5092286;28;20036;-69
2022/04/21 00:42:44;;;;;;;8.50;6.05;;;4.70;92.10;;;;;;5096427;28;20040;-69
2022/04/21 00:45:10;;;;;;;7.97;5.70;;;4.60;92.20;;;;;;5089907;27;20396;-69
2022/04/21 00:47:40;;;;;;;6.35;5.60;;;4.60;92.40;;;;;;5103007;28;20089;-69
2022/04/21 00:50:09;;;;;;;5.80;5.20;;;4.60;92.50;;;;;;5089939;28;20027;-69
2022/04/21 00:52:35;;;;;;;7.05;5.65;;;4.50;91.90;;;;;;5098969;28;20040;-69
2022/04/21 00:55:00;;;;;;;7.00;5.80;;;4.50;92.50;;;;;;5090925;28;20109;-69
2022/04/21 00:57:27;;;;;;;6.20;5.47;;;4.40;92.50;;;;;;5096776;27;20549;-69
2022/04/21 00:59:53;;;;;;;8.10;5.45;;;4.40;92.80;;;;;;5090825;28;20554;-69
2022/04/21 01:05:04;;;;;;;6.10;5.50;;;4.30;92.80;;;;;;5088544;28;20073;-69
2022/04/21 01:07:29;;;;;;;7.10;5.30;;;4.30;93.00;;;;;;5079566;28;20170;-69
2022/04/21 01:09:55;;;;;;;5.90;5.28;;;4.20;93.10;;;;;;5094550;28;20053;-69
2022/04/21 01:12:23;;;;;;;7.95;5.07;;;4.20;93.10;;;;;;5097846;28;20036;-69
2022/04/21 01:14:49;;;;;;;5.85;5.13;;;4.20;92.90;;;;;;5092312;27;20039;-69
2022/04/21 01:17:14;;;;;;;5.70;4.78;;;4.20;92.80;;;;;;5101515;28;20068;-69
2022/04/21 01:19:40;;;;;;;6.30;5.25;;;4.20;93.00;;;;;;5096853;27;20078;-69
2022/04/21 01:22:05;;;;;;;6.25;4.95;;;4.10;93.20;;;;;;5093903;28;20051;-69
2022/04/21 01:24:31;;;;;;;6.57;5.03;;;4.10;93.20;;;;;;5095082;28;20055;-69
2022/04/21 01:27:00;;;;;;;6.43;5.40;;;4.10;93.10;;;;;;5093656;28;20047;-69
2022/04/21 01:29:27;;;;;;;8.43;6.53;;;4.10;93.40;;;;;;5092441;28;20069;-68
2022/04/21 01:31:53;;;;;;;6.38;5.72;;;4.10;93.60;;;;;;5094968;28;20101;-69
2022/04/21 01:34:19;;;;;;;6.25;5.60;;;4.20;93.60;;;;;;5080603;28;20127;-69
2022/04/21 01:42:17;;;;;;;7.90;6.18;;;4.10;93.60;;;;;;5095807;28;20556;-69
2022/04/21 01:44:43;;;;;;;7.82;5.82;;;4.00;94.20;;;;;;5095334;28;20123;-69
2022/04/21 01:47:09;;;;;;;5.95;5.25;;;4.00;94.20;;;;;;5095996;28;20058;-69
2022/04/21 01:49:34;;;;;;;8.50;6.03;;;3.90;94.10;;;;;;5096949;28;20489;-69
2022/04/21 01:52:00;;;;;;;7.30;5.90;;;4.00;94.00;;;;;;5096656;28;20024;-69
2022/04/21 01:54:26;;;;;;;7.50;6.53;;;4.10;94.20;;;;;;5097806;28;20036;-69
2022/04/21 01:56:52;;;;;;;7.47;5.72;;;4.10;94.00;;;;;;5089882;28;20325;-69
2022/04/21 01:59:17;;;;;;;9.10;5.30;;;4.00;93.80;;;;;;5071951;28;20125;-69
2022/04/21 02:01:43;;;;;;;7.35;5.53;;;3.90;93.90;;;;;;5093211;28;20056;-68
2022/04/21 02:04:08;;;;;;;7.55;5.97;;;3.80;94.00;;;;;;5089273;28;20746;-69
2022/04/21 02:06:34;;;;;;;8.48;5.90;;;3.80;94.20;;;;;;5086774;28;20052;-69
2022/04/21 02:09:00;;;;;;;7.10;6.18;;;3.80;94.20;;;;;;5088724;28;20039;-68
2022/04/21 02:11:27;;;;;;;7.15;6.03;;;3.70;94.50;;;;;;5086631;28;20502;-69
2022/04/21 02:13:53;;;;;;;6.32;5.65;;;3.70;94.60;;;;;;5086388;28;20052;-69
2022/04/21 02:16:19;;;;;;;6.88;4.95;;;3.70;94.50;;;;;;5071380;28;20036;-69
2022/04/21 02:18:45;;;;;;;7.00;5.47;;;3.70;94.20;;;;;;5090751;28;20032;-69
2022/04/21 02:21:10;;;;;;;5.82;5.03;;;3.60;94.40;;;;;;5089153;27;20051;-69
2022/04/21 02:23:36;;;;;;;5.63;5.03;;;3.50;94.60;;;;;;5090921;27;20124;-69
2022/04/21 02:26:01;;;;;;;7.63;5.72;;;3.40;94.80;;;;;;5092562;27;20071;-69
2022/04/21 02:28:27;;;;;;;5.60;4.95;;;3.40;95.00;;;;;;5094968;28;20111;-69
2022/04/21 02:30:53;;;;;;;6.60;5.32;;;3.40;95.20;;;;;;5088591;28;20036;-68
2022/04/21 02:33:18;;;;;;;6.97;6.20;;;3.50;95.00;;;;;;5092633;27;20052;-69
2022/04/21 02:35:45;;;;;;;8.07;4.75;;;3.50;95.00;;;;;;5088503;28;20055;-69
2022/04/21 02:38:10;;;;;;;6.97;5.43;;;3.50;94.60;;;;;;5099088;28;20505;-69
2022/04/21 02:40:36;;;;;;;6.70;5.40;;;3.40;94.80;;;;;;5099606;27;20051;-69
2022/04/21 02:43:02;;;;;;;7.05;6.07;;;3.40;95.00;;;;;;5097472;27;20047;-76
2022/04/21 02:45:27;;;;;;;8.57;5.75;;;3.60;94.90;;;;;;5092530;28;20058;-76
2022/04/21 02:47:53;;;;;;;6.53;4.85;;;3.60;94.90;;;;;;5088426;27;20681;-75
2022/04/21 02:50:19;;;;;;;5.60;4.68;;;3.40;94.90;;;;;;5093653;27;20405;-75
2022/04/21 02:52:46;;;;;;;4.93;4.43;;;3.30;95.00;;;;;;5092404;27;20033;-75
2022/04/21 02:57:58;;;;;;;5.53;4.78;;;3.20;94.90;;;;;;5092373;28;20043;-76
2022/04/21 03:00:24;;;;;;;5.80;5.20;;;3.10;94.90;;;;;;5091356;27;20055;-76
2022/04/21 03:02:50;;;;;;;7.50;5.05;;;3.20;95.30;;;;;;5101317;27;20028;-76
2022/04/21 03:05:16;;;;;;;7.85;5.05;;;3.30;95.20;;;;;;5100063;27;20092;-76
2022/04/21 03:07:42;;;;;;;6.07;5.38;;;3.30;95.10;;;;;;5099621;27;20055;-76
2022/04/21 03:10:08;;;;;;;7.05;5.60;;;3.20;95.10;;;;;;5101034;27;20027;-76
2022/04/21 03:12:34;;;;;;;7.18;5.57;;;3.20;95.40;;;;;;5101336;27;20052;-76
2022/04/21 03:15:01;;;;;;;6.75;5.60;;;3.20;95.10;;;;;;5097673;27;20077;-76
2022/04/21 03:17:29;;;;;;;7.95;4.70;;;3.20;95.40;;;;;;5101059;27;20099;-76
2022/04/21 03:19:54;;;;;;;5.38;4.78;;;3.10;95.50;;;;;;5082690;28;20488;-77
2022/04/21 03:25:07;;;;;;;5.18;4.68;;;2.90;95.60;;;;;;5099120;27;20043;-69
2022/04/21 03:27:33;;;;;;;5.88;4.28;;;2.80;95.90;;;;;;5090267;27;20209;-68
2022/04/21 03:30:00;;;;;;;6.40;5.18;;;2.80;96.00;;;;;;5096473;28;20035;-69
2022/04/21 03:32:26;;;;;;;7.10;5.28;;;2.80;96.20;;;;;;5090882;27;20086;-69
2022/04/21 03:34:53;;;;;;;8.20;5.65;;;2.80;96.00;;;;;;5097265;27;20593;-69
2022/04/21 03:37:20;;;;;;;7.28;5.85;;;2.90;96.30;;;;;;5100811;28;20089;-69
2022/04/21 03:39:46;;;;;;;6.53;5.68;;;2.90;96.60;;;;;;5094656;27;22653;-69
2022/04/21 03:42:20;;;;;;;7.45;6.57;;;3.00;96.80;;;;;;5099757;27;20698;-69
2022/04/21 03:44:46;;;;;;;7.57;6.70;;;3.10;96.70;;;;;;5093722;27;20048;-69
2022/04/21 03:47:12;;;;;;;8.02;6.72;;;3.10;96.70;;;;;;5094440;28;20075;-69
2022/04/21 03:49:37;;;;;;;7.22;5.32;;;3.20;96.80;;;;;;5095921;27;20568;-69
2022/04/21 03:52:03;;;;;;;5.70;5.07;;;3.30;96.40;;;;;;5099387;27;20152;-69
2022/04/21 03:54:29;;;;;;;5.32;4.45;;;3.30;96.00;;;;;;5095041;27;20048;-69
2022/04/21 03:56:55;;;;;;;5.28;4.78;;;3.30;96.00;;;;;;5098686;27;20020;-69
2022/04/21 03:59:23;;;;;;;5.03;4.53;;;3.30;96.10;;;;;;5097180;28;21039;-69
2022/04/21 04:01:49;;;;;;;5.70;5.10;;;3.20;96.10;;;;;;5098757;28;20127;-69
2022/04/21 04:04:15;;;;;;;9.05;4.90;;;3.10;96.60;;;;;;5093705;27;20038;-69
2022/04/21 04:12:11;;;;;;;8.55;5.80;;;3.20;96.90;;;;;;5092454;27;20042;-69
2022/04/21 04:14:37;;;;;;;6.38;5.75;;;3.30;96.80;;;;;;5096421;28;20028;-69
2022/04/21 04:17:05;;;;;;;10.90;5.40;;;3.40;96.80;;;;;;5100656;28;20057;-69
2022/04/21 04:19:31;;;;;;;6.80;5.70;;;3.50;96.80;;;;;;5097665;28;20032;-69
2022/04/21 04:21:57;;;;;;;7.38;5.53;;;3.60;96.50;;;;;;5094766;27;20043;-69
2022/04/21 04:24:22;;;;;;;6.95;6.25;;;3.80;96.30;;;;;;5092922;28;20040;-69
2022/04/21 04:26:48;;;;;;;6.93;5.95;;;4.10;95.90;;;;;;5093266;27;20039;-69
2022/04/21 04:29:14;;;;;;;8.70;6.55;;;4.20;96.20;;;;;;5099817;28;20031;-69
2022/04/21 04:31:40;;;;;;;6.70;5.53;;;4.10;97.00;;;;;;5091797;27;20717;-69
2022/04/21 04:34:08;;;;;;;6.95;5.70;;;4.00;96.90;;;;;;5093149;28;20072;-69
2022/04/21 04:36:34;;;;;;;7.63;6.18;;;4.00;97.00;;;;;;5101493;27;20032;-69
2022/04/21 04:39:00;;;;;;;6.50;5.78;;;4.00;97.20;;;;;;5088903;28;20487;-69
2022/04/21 04:44:10;;;;;;;6.90;6.15;;;4.10;97.50;;;;;;5094009;27;20155;-71
2022/04/21 04:46:35;;;;;;;7.28;6.57;;;4.10;97.40;;;;;;5084911;28;20035;-69
2022/04/21 04:49:02;;;;;;;6.85;5.50;;;4.10;97.50;;;;;;5094311;28;20583;-70
2022/04/21 04:51:28;;;;;;;6.95;6.25;;;4.20;98.00;;;;;;5093659;27;20024;-69
2022/04/21 04:53:54;;;;;;;7.80;5.82;;;4.30;98.40;;;;;;5093199;27;20066;-70
2022/04/21 04:56:21;;;;;;;7.28;6.30;;;4.30;98.50;;;;;;5091471;28;20050;-72
2022/04/21 04:58:48;;;;;;;10.50;6.10;;;4.20;98.60;;;;;;5096371;28;20055;-71
2022/04/21 05:01:20;;;;;;;5.93;5.32;;;4.20;98.70;;;;;;5095127;28;20040;-70
2022/04/21 05:03:45;;;;;;;7.25;6.07;;;4.20;98.60;;;;;;5095218;28;20117;-70
2022/04/21 05:06:11;;;;;;;11.77;6.75;;;4.30;99.00;;;;;;5097510;28;20039;-72
2022/04/21 05:08:36;;;;;;;7.15;6.43;;;4.40;98.50;;;;;;5093429;28;20093;-71
2022/04/21 05:11:03;;;;;;;6.97;6.28;;;4.40;98.50;;;;;;5095352;28;20579;-69
2022/04/21 05:13:28;;;;;;;7.97;6.57;;;4.60;98.20;;;;;;5092397;28;20039;-70
2022/04/21 05:15:54;;;;;;;6.47;5.53;;;4.70;98.50;;;;;;5093617;28;20028;-69
2022/04/21 05:18:20;;;;;;;7.40;6.50;;;4.90;98.40;;;;;;5091432;28;20483;-70
2022/04/21 05:20:46;;;;;;;7.45;6.75;;;5.00;98.10;;;;;;5099486;28;20048;-71
2022/04/21 05:23:16;;;;;;;9.38;7.28;;;5.10;98.00;;;;;;5101308;28;20044;-71
2022/04/21 05:25:42;;;;;;;8.68;7.78;;;5.30;97.70;;;;;;5096505;28;20039;-71
2022/04/21 05:28:09;;;;;;;11.32;9.65;;;5.40;97.70;;;;;;5092427;28;20031;-69
2022/04/21 05:30:55;;;;;;;11.32;9.88;;;5.60;97.20;;;;;;5097439;28;20028;-70
2022/04/21 05:33:24;;;;;;;14.38;10.05;;;5.70;97.10;;;;;;5096219;28;20036;-69
2022/04/21 05:35:50;;;;;;;14.70;9.35;;;5.90;96.90;;;;;;5089168;28;20048;-71
2022/04/21 05:38:16;;;;;;;16.33;9.10;;;6.00;96.80;;;;;;5095105;28;20051;-71
2022/04/21 05:40:43;;;;;;;11.60;8.07;;;6.10;96.50;;;;;;5099536;28;20035;-72
2022/04/21 05:43:12;;;;;;;12.18;10.05;;;6.20;96.10;;;;;;5099167;28;20091;-71
2022/04/21 05:45:38;;;;;;;12.35;10.90;;;6.30;95.90;;;;;;5098711;28;20031;-71
2022/04/21 05:48:05;;;;;;;13.20;11.10;;;6.30;96.10;;;;;;5101507;28;20039;-72
2022/04/21 05:50:31;;;;;;;16.02;10.75;;;6.20;95.90;;;;;;5103473;28;20055;-72
2022/04/21 05:53:01;;;;;;;13.40;11.52;;;6.30;96.50;;;;;;5104770;28;20070;-71
2022/04/21 05:55:27;;;;;;;11.30;9.27;;;6.40;95.70;;;;;;5105797;28;20031;-72
2022/04/21 05:57:53;;;;;;;12.55;10.32;;;6.50;94.60;;;;;;5100723;28;20051;-72
2022/04/21 06:00:19;;;;;;;12.43;9.45;;;6.70;94.40;;;;;;5102505;27;20040;-71
2022/04/21 06:02:44;;;;;;;12.50;9.07;;;6.80;94.60;;;;;;5098844;27;20533;-71
2022/04/21 06:05:10;;;;;;;12.43;11.07;;;6.90;94.40;;;;;;5096980;28;20025;-71
2022/04/21 06:07:35;;;;;;;13.13;11.18;;;7.00;93.80;;;;;;5104048;27;20047;-71
2022/04/21 06:10:02;;;;;;;12.65;9.13;;;7.10;93.50;;;;;;5098305;27;20036;-69
2022/04/21 06:12:28;;;;;;;11.27;9.32;;;7.20;92.70;;;;;;5102332;27;20107;-69
2022/04/21 06:14:53;;;;;;;9.93;8.90;;;7.30;92.50;;;;;;5088473;28;20051;-69
2022/04/21 06:17:19;;;;;;;12.45;9.70;;;7.30;93.00;;;;;;5103782;27;20063;-69
2022/04/21 06:19:45;;;;;;;9.82;8.13;;;7.40;93.10;;;;;;5105377;27;20044;-69
2022/04/21 06:22:11;;;;;;;10.25;8.20;;;7.40;93.10;;;;;;5102878;27;20059;-69
2022/04/21 06:24:38;;;;;;;9.77;8.75;;;7.50;93.60;;;;;;5101869;27;20579;-69
2022/04/21 06:27:04;;;;;;;9.75;8.70;;;7.60;93.50;;;;;;5101819;28;20043;-70
2022/04/21 06:29:30;;;;;;;8.80;7.90;;;7.50;93.50;;;;;;5101795;28;20470;-71
2022/04/21 06:31:56;;;;;;;9.43;8.30;;;7.50;93.60;;;;;;5106740;28;20093;-71
2022/04/21 06:34:22;;;;;;;9.65;8.65;;;7.60;93.80;;;;;;5104620;28;20039;-71
2022/04/21 06:36:48;;;;;;;10.40;8.88;;;7.60;94.00;;;;;;5105404;27;20071;-71
2022/04/21 06:39:14;;;;;;;10.93;8.82;;;7.70;94.10;;;;;;5102693;28;20073;-72
2022/04/21 06:41:40;;;;;;;10.75;8.18;;;7.90;93.50;;;;;;5100548;28;20106;-72
2022/04/21 06:49:34;;;;;;;10.82;8.55;;;8.60;92.50;;;;;;5097833;27;20094;-71
2022/04/21 06:52:00;;;;;;;9.23;8.32;;;8.80;91.80;;;;;;5104244;28;20466;-72
2022/04/21 06:54:26;;;;;;;9.00;7.82;;;9.10;92.00;;;;;;5101686;28;20119;-71
2022/04/21 06:56:51;;;;;;;10.38;7.85;;;9.20;92.10;;;;;;5104115;28;20032;-72
2022/04/21 06:59:17;;;;;;;8.00;7.20;;;9.40;92.20;;;;;;5107174;27;20326;-71
2022/04/21 07:01:46;;;;;;;14.75;7.72;;;9.60;91.20;;;;;;5104277;28;20529;-71
2022/04/21 07:04:13;;;;;;;9.88;8.38;;;9.70;91.30;;;;;;5113983;27;20028;-71
2022/04/21 07:06:38;;;;;;;13.65;9.52;;;9.90;91.60;;;;;;5105465;28;20044;-70
2022/04/21 07:09:04;;;;;;;9.57;8.38;;;10.10;90.60;;;;;;5102130;28;20038;-70
2022/04/21 07:11:30;;;;;;;8.68;7.65;;;10.30;90.60;;;;;;5100577;27;20038;-71
2022/04/21 07:13:56;;;;;;;8.57;7.53;;;10.50;91.00;;;;;;5096204;27;20040;-70
2022/04/21 07:16:22;;;;;;;10.40;7.40;;;10.50;90.40;;;;;;5103614;28;20755;-70
2022/04/21 07:18:48;;;;;;;8.80;7.80;;;10.60;90.90;;;;;;5105022;28;20032;-69
2022/04/21 07:21:14;;;;;;;8.20;7.43;;;10.90;91.20;;;;;;5107574;27;20142;-71
2022/04/21 07:23:40;;;;;;;9.43;8.43;;;11.10;91.20;;;;;;5109654;28;20121;-68
2022/04/21 07:26:06;;;;;;;8.35;7.50;;;11.30;90.20;;;;;;5105862;27;20036;-69
2022/04/21 07:28:32;;;;;;;7.55;6.75;;;11.50;90.60;;;;;;5103720;28;20035;-70
2022/04/21 07:30:58;;;;;;;9.07;7.85;;;11.70;89.40;;;;;;5083793;28;20036;-69
2022/04/21 07:33:23;;;;;;;8.80;6.47;;;11.90;90.50;;;;;;5102937;27;20520;-69
2022/04/21 07:35:49;;;;;;;7.47;6.78;;;12.00;88.90;;;;;;5099840;27;20039;-70
2022/04/21 07:38:15;;;;;;;7.10;6.40;;;12.10;89.00;;;;;;5102085;28;20120;-69
2022/04/21 07:40:41;;;;;;;7.07;6.38;;;12.30;88.50;;;;;;5094527;28;20031;-69
2022/04/21 07:43:08;;;;;;;4.43;4.03;;;12.50;87.70;;;;;;5092414;28;20060;-70
2022/04/21 07:45:35;;;;;;;4.20;3.80;;;12.80;82.10;;;;;;5101660;28;20031;-69
2022/04/21 07:48:01;;;;;;;3.08;2.38;;;12.90;77.60;;;;;;5089386;27;20050;-70
2022/04/21 07:50:26;;;;;;;3.67;2.35;;;13.00;70.10;;;;;;5089031;28;20044;-70
2022/04/21 07:55:36;;;;;;;2.45;2.25;;;13.20;66.40;;;;;;5099297;28;20197;-70
2022/04/21 07:58:02;;;;;;;3.08;2.60;;;13.30;65.70;;;;;;5097390;27;20811;-69
2022/04/21 08:00:28;;;;;;;4.70;2.45;;;13.40;61.90;;;;;;5102285;27;20822;-69
2022/04/21 08:02:54;;;;;;;2.08;1.88;;;13.40;63.40;;;;;;5103111;27;20046;-69
2022/04/21 08:05:21;;;;;;;2.85;2.50;;;13.50;63.10;;;;;;5103125;27;20036;-70
2022/04/21 08:07:48;;;;;;;3.58;2.03;;;13.60;63.70;;;;;;5096647;27;20039;-69
2022/04/21 08:10:15;;;;;;;3.15;1.77;;;13.70;59.10;;;;;;5093482;27;20047;-70
2022/04/21 08:12:42;;;;;;;2.05;1.73;;;13.70;57.90;;;;;;5070828;27;20108;-70
2022/04/21 08:15:08;;;;;;;2.05;1.85;;;13.60;57.00;;;;;;5091711;27;20038;-71
2022/04/21 08:17:38;;;;;;;1.85;1.55;;;13.60;56.30;;;;;;5094310;27;20143;-70
2022/04/21 08:20:10;;;;;;;4.03;2.08;;;13.60;56.80;;;;;;5073735;28;20507;-69
2022/04/21 08:22:37;;;;;;;2.88;1.90;;;13.60;56.50;;;;;;5092936;27;20055;-70
2022/04/21 08:33:16;;;;;;;2.85;2.17;;;13.90;55.50;;;;;;5097956;28;20066;-71
2022/04/21 08:35:44;;;;;;;1.77;1.48;;;14.00;55.80;;;;;;5101730;28;20038;-71
2022/04/21 08:38:10;;;;;;;2.35;1.75;;;14.10;55.20;;;;;;5103425;27;20051;-73
2022/04/21 08:40:50;;;;;;;1.70;1.48;;;14.20;53.30;;;;;;5094809;28;20155;-70
2022/04/21 08:43:16;;;;;;;1.75;1.58;;;14.20;52.00;;;;;;5095308;28;20171;-71
2022/04/21 08:45:45;;;;;;;2.33;1.90;;;14.20;53.60;;;;;;5098444;28;20575;-74
2022/04/21 08:48:12;;;;;;;1.75;1.65;;;14.10;52.00;;;;;;5094362;28;20040;-73
2022/04/21 08:50:39;;;;;;;1.70;1.60;;;14.00;53.90;;;;;;5098874;28;20031;-73
2022/04/21 08:53:09;;;;;;;2.17;1.85;;;14.10;53.70;;;;;;5096753;28;20377;-72
2022/04/21 08:55:35;;;;;;;1.90;1.80;;;14.20;54.50;;;;;;5095793;28;20043;-72
2022/04/21 08:58:01;;;;;;;2.30;1.73;;;14.30;54.00;;;;;;5097600;28;20028;-72
2022/04/21 09:00:27;;;;;;;5.63;1.70;;;14.50;55.60;;;;;;5096101;28;20131;-73
2022/04/21 09:02:56;;;;;;;3.03;1.98;;;14.60;53.40;;;;;;5099764;27;20047;-71
2022/04/21 09:05:22;;;;;;;4.57;1.80;;;14.60;50.10;;;;;;5091382;28;20044;-72
2022/04/21 09:07:52;;;;;;;2.35;1.67;;;14.40;51.30;;;;;;5092859;28;20028;-73
2022/04/21 09:10:19;;;;;;;2.15;1.75;;;14.30;50.40;;;;;;5090371;28;20043;-73
2022/04/21 09:12:52;;;;;;;5.25;2.22;;;14.30;51.10;;;;;;5082674;28;20577;-70
2022/04/21 09:15:19;;;;;;;1.50;1.40;;;14.40;51.90;;;;;;5083413;28;20047;-70
2022/04/21 09:17:47;;;;;;;2.35;1.80;;;14.50;52.60;;;;;;5096439;28;20074;-69
2022/04/21 09:20:15;;;;;;;2.42;1.92;;;14.60;52.90;;;;;;5087188;28;20046;-69
2022/04/21 09:22:47;;;;;;;2.70;2.17;;;14.70;52.00;;;;;;5088037;28;20040;-69
2022/04/21 09:25:12;;;;;;;3.35;1.75;;;14.80;50.60;;;;;;5091211;28;20594;-69
2022/04/21 09:27:39;;;;;;;3.25;1.83;;;14.70;50.30;;;;;;5094694;28;20032;-70
2022/04/21 09:30:10;;;;;;;2.45;1.77;;;14.70;51.60;;;;;;5087750;28;20118;-69
2022/04/21 09:32:37;;;;;;;1.50;1.40;;;14.80;51.80;;;;;;5089410;28;20123;-69
2022/04/21 09:35:09;;;;;;;1.95;1.85;;;14.90;51.00;;;;;;5094593;28;20051;-70
2022/04/21 09:37:54;;;;;;;2.03;1.93;;;14.90;51.90;;;;;;5093324;28;20031;-70
2022/04/21 09:40:23;;;;;;;3.88;1.70;;;14.90;48.70;;;;;;5051637;28;20285;-71
2022/04/21 09:42:57;;;;;;;1.42;1.33;;;14.80;51.60;;;;;;5052968;28;20098;-71
2022/04/21 09:48:28;;;;;;;2.00;1.67;;;15.10;50.70;;;;;;5051502;28;20106;-69
2022/04/21 09:50:55;;;;;;;3.90;1.75;;;15.20;49.50;;;;;;5044652;28;20037;-71
2022/04/21 09:53:23;;;;;;;2.38;1.75;;;15.20;51.00;;;;;;5052218;28;20040;-70
2022/04/21 09:55:50;;;;;;;4.43;1.92;;;15.30;50.30;;;;;;5047941;28;20037;-70
2022/04/21 09:58:17;;;;;;;2.10;1.88;;;15.40;51.00;;;;;;5047312;28;20137;-71
2022/04/21 10:00:44;;;;;;;3.60;2.03;;;15.50;50.10;;;;;;5044134;28;20052;-70
2022/04/21 10:03:10;;;;;;;2.28;1.70;;;15.40;47.40;;;;;;5048230;28;20048;-69
2022/04/21 10:05:39;;;;;;;2.97;1.90;;;15.30;49.10;;;;;;5047673;28;20055;-69
2022/04/21 10:08:07;;;;;;;2.50;1.75;;;15.30;48.80;;;;;;5046291;28;20049;-69
2022/04/21 10:10:34;;;;;;;2.35;1.98;;;15.40;49.30;;;;;;5051777;28;20093;-71
2022/04/21 10:13:02;;;;;;;2.33;1.90;;;15.40;49.00;;;;;;5051097;28;20054;-71
2022/04/21 10:15:29;;;;;;;2.65;2.20;;;15.50;47.90;;;;;;5052248;28;20037;-70
2022/04/21 10:17:55;;;;;;;4.50;2.10;;;15.50;49.60;;;;;;5057515;28;20542;-70
2022/04/21 10:20:23;;;;;;;7.75;2.72;;;15.60;48.30;;;;;;5048537;28;20060;-69
2022/04/21 10:22:49;;;;;;;3.67;1.70;;;15.70;48.40;;;;;;5051126;28;20031;-70
2022/04/21 10:25:15;;;;;;;1.80;1.70;;;15.70;49.80;;;;;;5057781;28;20037;-70
2022/04/21 10:27:47;;;;;;;2.90;1.70;;;15.70;49.70;;;;;;5049688;28;20028;-71
2022/04/21 10:30:14;;;;;;;5.30;2.35;;;15.60;49.30;;;;;;5057854;28;20039;-70
2022/04/21 10:32:52;;;;;;;2.38;1.70;;;15.60;49.80;;;;;;5054244;28;20409;-70
2022/04/21 10:35:40;;;;;;;3.17;1.60;;;15.70;47.30;;;;;;5051272;28;20029;-70
2022/04/21 10:38:14;;;;;;;4.25;1.67;;;15.70;46.90;;;;;;5058472;28;20037;-70
2022/04/21 10:40:56;;;;;;;2.00;1.80;;;15.80;49.70;;;;;;5093840;28;20086;-69
2022/04/21 10:43:22;;;;;;;3.72;1.90;;;15.90;48.50;;;;;;5097534;28;20058;-70
2022/04/21 10:46:04;;;;;;;5.75;2.22;;;16.00;48.10;;;;;;5100947;28;20151;-70
2022/04/21 10:48:43;;;;;;;2.80;2.20;;;16.00;48.80;;;;;;5101165;28;20035;-70
2022/04/21 10:51:10;;;;;;;2.60;2.00;;;16.00;49.00;;;;;;5092959;28;20111;-69
2022/04/21 10:59:31;;;;;;;2.72;1.75;;;16.00;46.60;;;;;;5089188;28;20442;-69
2022/04/21 11:02:11;;;;;;;5.90;2.10;;;15.90;47.40;;;;;;5090211;27;24788;-70
2022/04/21 11:04:37;;;;;;;3.35;2.10;;;16.00;46.70;;;;;;5097602;27;20122;-70
2022/04/21 11:07:13;;;;;;;2.17;2.00;;;16.00;47.40;;;;;;5100132;28;20764;-70
2022/04/21 11:09:42;;;;;;;2.22;1.80;;;16.20;47.30;;;;;;5096637;27;20036;-70
2022/04/21 11:12:11;;;;;;;2.35;1.98;;;16.30;48.00;;;;;;5095545;27;20096;-71
2022/04/21 11:14:39;;;;;;;1.70;1.52;;;16.40;46.70;;;;;;5081604;28;20032;-69
2022/04/21 11:17:06;;;;;;;2.95;1.67;;;16.30;49.10;;;;;;5089987;27;20062;-70
2022/04/21 11:19:40;;;;;;;3.33;1.60;;;16.50;48.80;;;;;;5102284;27;20046;-70
2022/04/21 11:22:09;;;;;;;1.92;1.55;;;16.70;47.10;;;;;;5099167;27;20058;-71
2022/04/21 11:24:58;;;;;;;2.75;1.90;;;16.70;46.10;;;;;;5103394;27;20549;-71
2022/04/21 11:27:27;;;;;;;2.05;1.70;;;16.60;45.10;;;;;;5097036;27;20200;-71
2022/04/21 11:29:59;;;;;;;2.83;2.20;;;16.40;46.90;;;;;;5100555;28;20723;-71
2022/04/21 11:32:25;;;;;;;2.10;1.70;;;16.40;46.00;;;;;;5091691;28;20090;-72
2022/04/21 11:35:17;;;;;;;1.90;1.70;;;16.40;46.60;;;;;;5099363;28;20036;-71
2022/04/21 11:37:50;;;;;;;2.33;1.88;;;16.50;47.00;;;;;;5095774;28;20039;-71
2022/04/21 11:40:24;;;;;;;2.00;1.80;;;16.60;46.50;;;;;;5102777;28;20050;-70
2022/04/21 11:42:51;;;;;;;2.78;1.73;;;16.60;46.50;;;;;;5103129;28;20018;-70
2022/04/21 11:45:18;;;;;;;1.88;1.77;;;16.70;47.50;;;;;;5095909;27;20035;-71
2022/04/21 11:47:44;;;;;;;4.43;1.67;;;16.70;48.50;;;;;;5099201;28;20039;-71
2022/04/21 11:50:13;;;;;;;3.08;1.80;;;16.60;48.20;;;;;;5097984;27;20046;-71
2022/04/21 11:52:42;;;;;;;1.60;1.50;;;16.60;47.10;;;;;;5095866;28;20496;-71
2022/04/21 11:55:12;;;;;;;2.08;1.88;;;16.60;46.80;;;;;;5096503;28;20042;-71
2022/04/21 11:57:44;;;;;;;3.40;2.10;;;16.60;46.30;;;;;;5102098;28;20039;-70
2022/04/21 12:00:11;;;;;;;17.48;12.18;;;16.70;48.50;;;;;;5097674;28;20040;-70
2022/04/21 12:08:12;;;;;;;2.97;2.35;;;16.90;43.50;;;;;;5095352;27;20535;-71
2022/04/21 12:10:38;;;;;;;1.70;1.38;;;17.00;43.00;;;;;;5096844;27;20055;-71
2022/04/21 12:13:04;;;;;;;1.50;1.40;;;17.10;44.30;;;;;;5100053;28;20027;-71
2022/04/21 12:15:31;;;;;;;68.13;42.20;;;17.10;45.20;;;;;;5098668;27;20036;-72
2022/04/21 12:18:04;;;;;;;3.85;3.28;;;17.20;45.40;;;;;;5102587;28;20135;-73
2022/04/21 12:20:30;;;;;;;3.70;1.70;;;17.20;43.50;;;;;;5097332;28;20047;-71
2022/04/21 12:22:57;;;;;;;10.60;6.53;;;17.20;44.00;;;;;;5098553;28;20040;-71
2022/04/21 12:25:32;;;;;;;8.68;5.95;;;17.20;45.90;;;;;;5103150;28;20492;-70
2022/04/21 12:28:03;;;;;;;3.00;2.00;;;17.20;47.40;;;;;;5094027;28;20046;-71
2022/04/21 12:30:29;;;;;;;2.42;2.22;;;17.20;44.30;;;;;;5099316;27;20044;-71
2022/04/21 12:32:54;;;;;;;1.73;1.63;;;17.00;45.10;;;;;;5102503;28;20036;-71
2022/04/21 12:35:44;;;;;;;3.67;2.90;;;16.90;44.30;;;;;;5097597;28;20044;-71
2022/04/21 12:41:01;;;;;;;2.58;2.28;;;17.00;44.90;;;;;;5097503;27;20098;-71
2022/04/21 12:43:30;;;;;;;2.95;2.08;;;17.10;44.20;;;;;;5091081;28;20049;-72
2022/04/21 12:45:57;;;;;;;2.33;2.13;;;17.20;43.40;;;;;;5095602;28;20569;-71
2022/04/21 12:48:26;;;;;;;2.53;2.33;;;17.10;41.50;;;;;;5098724;27;20099;-71
2022/04/21 12:50:53;;;;;;;3.90;2.75;;;17.10;42.50;;;;;;5092709;28;20143;-70
2022/04/21 12:53:34;;;;;;;1.83;1.58;;;17.20;43.10;;;;;;5091166;28;20028;-71
2022/04/21 12:56:11;;;;;;;4.53;1.70;;;17.40;42.50;;;;;;5096183;28;20117;-70
2022/04/21 12:58:37;;;;;;;5.70;3.45;;;17.50;42.70;;;;;;5098107;28;20111;-71
2022/04/21 13:01:05;;;;;;;1.33;1.13;;;17.50;42.90;;;;;;5095850;28;20043;-71
2022/04/21 13:03:32;;;;;;;3.40;3.10;;;17.60;41.60;;;;;;5095959;28;20040;-71
2022/04/21 13:05:59;;;;;;;5.03;1.23;;;17.70;42.80;;;;;;5096773;28;20066;-72
2022/04/21 13:08:27;;;;;;;1.40;1.30;;;17.80;42.00;;;;;;5095179;28;20040;-71
2022/04/21 13:10:54;;;;;;;2.08;1.25;;;17.80;41.00;;;;;;5099433;27;20107;-72
2022/04/21 13:13:21;;;;;;;3.88;1.38;;;17.80;40.60;;;;;;5092610;28;20035;-71
2022/04/21 13:15:47;;;;;;;1.70;1.48;;;17.90;41.00;;;;;;5095835;28;20089;-71
2022/04/21 13:18:15;;;;;;;1.45;1.23;;;17.90;41.10;;;;;;5096792;28;20043;-71
2022/04/21 13:23:26;;;;;;;2.45;1.70;;;17.80;42.60;;;;;;5093544;28;20054;-71
2022/04/21 13:25:53;;;;;;;2.83;1.88;;;17.90;41.70;;;;;;5094599;28;20032;-71
2022/04/21 13:28:18;;;;;;;2.80;2.60;;;17.70;42.70;;;;;;5096772;28;20028;-72
2022/04/21 13:30:44;;;;;;;6.35;3.47;;;17.80;42.40;;;;;;5094089;28;20097;-70
2022/04/21 13:33:22;;;;;;;1.63;1.52;;;17.60;43.60;;;;;;5089683;28;20441;-71
2022/04/21 13:35:52;;;;;;;1.73;1.40;;;17.80;40.70;;;;;;5098839;28;20048;-72
2022/04/21 13:38:18;;;;;;;1.50;1.40;;;17.90;41.10;;;;;;5094227;28;20032;-71
2022/04/21 13:40:44;;;;;;;3.05;1.55;;;18.00;42.10;;;;;;5092230;28;20056;-71
2022/04/21 13:43:10;;;;;;;3.95;2.40;;;18.10;41.20;;;;;;5096544;28;20036;-71
2022/04/21 13:45:39;;;;;;;3.70;2.78;;;18.20;42.10;;;;;;5094593;28;20048;-70
2022/04/21 13:48:07;;;;;;;3.42;2.00;;;18.00;41.70;;;;;;5091634;28;20048;-69
2022/04/21 13:50:33;;;;;;;2.53;1.73;;;17.80;42.20;;;;;;5091968;28;20035;-70
2022/04/21 13:52:59;;;;;;;1.45;1.35;;;17.90;42.50;;;;;;5091806;28;20055;-69